sensor_id;sensor_type;location;lat;lon;timestamp;temperature;humidity
4739;DHT22;2383;48.632;10.156;2023-02-21T00:02:00;2.90;92.40
4739;DHT22;2383;48.632;10.156;2023-02-21T00:06:20;3.10;92.20
4739;DHT22;2383;48.632;10.156;2023-02-21T00:10:41;3.20;91.90
4739;DHT22;2383;48.632;10.156;2023-02-21T00:15:01;3.20;92.20
4739;DHT22;2383;48.632;10.156;2023-02-21T00:19:21;3.40;91.70
4739;DHT22;2383;48.632;10.156;2023-02-21T00:23:42;3.50;91.50
4739;DHT22;2383;48.632;10.156;2023-02-21T00:28:02;3.60;91.40
4739;DHT22;2383;48.632;10.156;2023-02-21T00:32:23;3.50;91.30
4739;DHT22;2383;48.632;10.156;2023-02-21T00:36:43;3.50;91.30
4739;DHT22;2383;48.632;10.156;2023-02-21T00:41:04;3.60;91.30
4739;DHT22;2383;48.632;10.156;2023-02-21T00:45:24;3.50;91.40
4739;DHT22;2383;48.632;10.156;2023-02-21T00:49:45;3.60;91.40
4739;DHT22;2383;48.632;10.156;2023-02-21T00:54:05;3.30;91.60
4739;DHT22;2383;48.632;10.156;2023-02-21T00:58:26;3.00;91.60
4739;DHT22;2383;48.632;10.156;2023-02-21T01:02:46;2.90;91.60
4739;DHT22;2383;48.632;10.156;2023-02-21T01:07:06;2.70;91.70
4739;DHT22;2383;48.632;10.156;2023-02-21T01:11:27;2.90;91.80
4739;DHT22;2383;48.632;10.156;2023-02-21T01:15:48;3.00;91.40
4739;DHT22;2383;48.632;10.156;2023-02-21T01:20:09;2.90;91.70
4739;DHT22;2383;48.632;10.156;2023-02-21T01:24:29;3.10;91.40
4739;DHT22;2383;48.632;10.156;2023-02-21T01:28:49;3.10;91.40
4739;DHT22;2383;48.632;10.156;2023-02-21T01:33:10;3.00;91.70
4739;DHT22;2383;48.632;10.156;2023-02-21T01:37:31;2.90;91.40
4739;DHT22;2383;48.632;10.156;2023-02-21T01:41:51;3.00;91.50
4739;DHT22;2383;48.632;10.156;2023-02-21T01:46:17;2.90;91.40
4739;DHT22;2383;48.632;10.156;2023-02-21T01:50:38;2.90;91.30
4739;DHT22;2383;48.632;10.156;2023-02-21T01:54:58;2.90;91.50
4739;DHT22;2383;48.632;10.156;2023-02-21T01:59:21;2.70;91.70
4739;DHT22;2383;48.632;10.156;2023-02-21T02:03:42;2.70;91.70
4739;DHT22;2383;48.632;10.156;2023-02-21T02:08:03;2.70;91.70
4739;DHT22;2383;48.632;10.156;2023-02-21T02:30:30;2.60;91.30
4739;DHT22;2383;48.632;10.156;2023-02-21T02:47:10;2.50;91.20
4739;DHT22;2383;48.632;10.156;2023-02-21T02:51:15;2.30;91.30
4739;DHT22;2383;48.632;10.156;2023-02-21T02:56:10;2.40;91.30
4739;DHT22;2383;48.632;10.156;2023-02-21T02:59:53;2.40;91.10
4739;DHT22;2383;48.632;10.156;2023-02-21T03:17:09;2.20;91.20
4739;DHT22;2383;48.632;10.156;2023-02-21T03:21:25;2.00;91.40
4739;DHT22;2383;48.632;10.156;2023-02-21T03:25:29;2.10;91.40
4739;DHT22;2383;48.632;10.156;2023-02-21T03:29:36;2.40;91.10
4739;DHT22;2383;48.632;10.156;2023-02-21T03:33:39;2.20;91.30
4739;DHT22;2383;48.632;10.156;2023-02-21T03:37:44;2.20;91.30
4739;DHT22;2383;48.632;10.156;2023-02-21T03:41:47;2.30;91.30
4739;DHT22;2383;48.632;10.156;2023-02-21T03:45:49;2.20;91.10
4739;DHT22;2383;48.632;10.156;2023-02-21T03:49:52;1.90;91.50
4739;DHT22;2383;48.632;10.156;2023-02-21T03:53:54;1.90;91.20
4739;DHT22;2383;48.632;10.156;2023-02-21T03:58:03;2.00;91.20
4739;DHT22;2383;48.632;10.156;2023-02-21T04:02:07;2.30;91.00
4739;DHT22;2383;48.632;10.156;2023-02-21T04:06:10;2.10;91.20
4739;DHT22;2383;48.632;10.156;2023-02-21T04:10:13;1.90;91.20
4739;DHT22;2383;48.632;10.156;2023-02-21T04:14:18;1.80;91.00
4739;DHT22;2383;48.632;10.156;2023-02-21T04:18:20;0.90;91.90
4739;DHT22;2383;48.632;10.156;2023-02-21T04:22:23;1.20;91.90
4739;DHT22;2383;48.632;10.156;2023-02-21T04:26:25;1.50;91.80
4739;DHT22;2383;48.632;10.156;2023-02-21T04:30:30;1.40;91.90
4739;DHT22;2383;48.632;10.156;2023-02-21T04:34:32;1.40;91.70
4739;DHT22;2383;48.632;10.156;2023-02-21T04:38:35;1.70;91.40
4739;DHT22;2383;48.632;10.156;2023-02-21T04:42:38;1.70;91.40
4739;DHT22;2383;48.632;10.156;2023-02-21T04:46:40;1.60;91.50
4739;DHT22;2383;48.632;10.156;2023-02-21T04:50:42;1.70;91.50
4739;DHT22;2383;48.632;10.156;2023-02-21T04:54:45;1.60;91.40
4739;DHT22;2383;48.632;10.156;2023-02-21T04:58:47;1.60;91.60
4739;DHT22;2383;48.632;10.156;2023-02-21T05:02:49;1.70;91.50
4739;DHT22;2383;48.632;10.156;2023-02-21T05:06:51;1.80;91.20
4739;DHT22;2383;48.632;10.156;2023-02-21T05:10:53;1.70;91.30
4739;DHT22;2383;48.632;10.156;2023-02-21T05:14:55;1.60;91.30
4739;DHT22;2383;48.632;10.156;2023-02-21T05:18:57;1.80;91.30
4739;DHT22;2383;48.632;10.156;2023-02-21T05:22:59;1.70;91.20
4739;DHT22;2383;48.632;10.156;2023-02-21T05:27:15;1.70;91.20
4739;DHT22;2383;48.632;10.156;2023-02-21T05:31:18;1.50;91.30
4739;DHT22;2383;48.632;10.156;2023-02-21T05:35:20;1.20;91.40
4739;DHT22;2383;48.632;10.156;2023-02-21T05:39:22;1.30;91.80
4739;DHT22;2383;48.632;10.156;2023-02-21T05:43:24;1.50;91.50
4739;DHT22;2383;48.632;10.156;2023-02-21T05:47:29;1.60;91.20
4739;DHT22;2383;48.632;10.156;2023-02-21T05:51:36;1.50;91.30
4739;DHT22;2383;48.632;10.156;2023-02-21T05:55:38;1.60;91.40
4739;DHT22;2383;48.632;10.156;2023-02-21T05:59:40;1.50;91.30
4739;DHT22;2383;48.632;10.156;2023-02-21T06:03:42;1.50;91.50
4739;DHT22;2383;48.632;10.156;2023-02-21T06:07:44;1.50;91.20
4739;DHT22;2383;48.632;10.156;2023-02-21T06:11:46;1.40;91.50
4739;DHT22;2383;48.632;10.156;2023-02-21T06:15:48;1.40;91.70
4739;DHT22;2383;48.632;10.156;2023-02-21T06:19:50;1.40;91.70
4739;DHT22;2383;48.632;10.156;2023-02-21T06:23:52;1.30;92.00
4739;DHT22;2383;48.632;10.156;2023-02-21T06:27:53;1.40;91.90
4739;DHT22;2383;48.632;10.156;2023-02-21T06:31:59;1.40;91.50
4739;DHT22;2383;48.632;10.156;2023-02-21T06:36:06;1.30;91.70
4739;DHT22;2383;48.632;10.156;2023-02-21T06:40:08;1.50;91.60
4739;DHT22;2383;48.632;10.156;2023-02-21T06:44:10;1.60;91.70
4739;DHT22;2383;48.632;10.156;2023-02-21T06:48:16;1.50;91.70
4739;DHT22;2383;48.632;10.156;2023-02-21T06:52:18;1.50;91.90
4739;DHT22;2383;48.632;10.156;2023-02-21T06:56:20;1.50;92.30
4739;DHT22;2383;48.632;10.156;2023-02-21T07:00:22;1.60;92.10
4739;DHT22;2383;48.632;10.156;2023-02-21T07:04:24;1.60;92.50
4739;DHT22;2383;48.632;10.156;2023-02-21T07:08:26;1.70;92.30
4739;DHT22;2383;48.632;10.156;2023-02-21T07:12:28;1.90;92.30
4739;DHT22;2383;48.632;10.156;2023-02-21T07:16:30;1.90;92.50
4739;DHT22;2383;48.632;10.156;2023-02-21T07:20:32;1.60;92.60
4739;DHT22;2383;48.632;10.156;2023-02-21T07:24:34;1.80;92.60
4739;DHT22;2383;48.632;10.156;2023-02-21T07:28:37;1.80;92.70
4739;DHT22;2383;48.632;10.156;2023-02-21T07:32:39;2.00;92.40
4739;DHT22;2383;48.632;10.156;2023-02-21T07:36:41;2.20;92.40
4739;DHT22;2383;48.632;10.156;2023-02-21T07:40:43;1.90;93.00
4739;DHT22;2383;48.632;10.156;2023-02-21T07:44:45;1.80;93.00
4739;DHT22;2383;48.632;10.156;2023-02-21T07:48:48;2.10;92.90
4739;DHT22;2383;48.632;10.156;2023-02-21T07:52:50;2.40;92.80
4739;DHT22;2383;48.632;10.156;2023-02-21T07:56:52;2.50;92.70
4739;DHT22;2383;48.632;10.156;2023-02-21T08:00:54;2.60;92.90
4739;DHT22;2383;48.632;10.156;2023-02-21T08:04:56;2.80;92.90
4739;DHT22;2383;48.632;10.156;2023-02-21T08:08:58;3.00;92.90
4739;DHT22;2383;48.632;10.156;2023-02-21T08:13:00;3.10;92.70
4739;DHT22;2383;48.632;10.156;2023-02-21T08:17:01;3.30;92.70
4739;DHT22;2383;48.632;10.156;2023-02-21T08:21:07;3.40;92.60
4739;DHT22;2383;48.632;10.156;2023-02-21T08:25:11;3.60;92.40
4739;DHT22;2383;48.632;10.156;2023-02-21T08:29:14;3.80;92.30
4739;DHT22;2383;48.632;10.156;2023-02-21T08:33:16;3.90;92.50
4739;DHT22;2383;48.632;10.156;2023-02-21T08:37:17;4.10;92.10
4739;DHT22;2383;48.632;10.156;2023-02-21T08:41:20;4.30;92.00
4739;DHT22;2383;48.632;10.156;2023-02-21T08:45:24;4.40;92.20
4739;DHT22;2383;48.632;10.156;2023-02-21T08:49:26;4.60;92.30
4739;DHT22;2383;48.632;10.156;2023-02-21T08:53:28;4.80;92.30
4739;DHT22;2383;48.632;10.156;2023-02-21T08:57:30;5.00;92.10
4739;DHT22;2383;48.632;10.156;2023-02-21T09:01:33;5.20;92.20
4739;DHT22;2383;48.632;10.156;2023-02-21T09:05:35;5.40;92.40
4739;DHT22;2383;48.632;10.156;2023-02-21T09:09:38;5.30;92.70
4739;DHT22;2383;48.632;10.156;2023-02-21T09:13:40;5.60;92.30
4739;DHT22;2383;48.632;10.156;2023-02-21T09:17:42;6.00;92.30
4739;DHT22;2383;48.632;10.156;2023-02-21T09:21:45;6.00;92.20
4739;DHT22;2383;48.632;10.156;2023-02-21T09:25:47;6.20;92.20
4739;DHT22;2383;48.632;10.156;2023-02-21T09:29:49;6.40;92.20
4739;DHT22;2383;48.632;10.156;2023-02-21T09:33:51;6.50;92.10
4739;DHT22;2383;48.632;10.156;2023-02-21T09:37:53;6.60;92.20
4739;DHT22;2383;48.632;10.156;2023-02-21T09:41:55;6.60;92.40
4739;DHT22;2383;48.632;10.156;2023-02-21T09:46:01;6.70;92.30
4739;DHT22;2383;48.632;10.156;2023-02-21T09:50:11;6.80;92.70
4739;DHT22;2383;48.632;10.156;2023-02-21T09:58:41;7.10;91.90
4739;DHT22;2383;48.632;10.156;2023-02-21T10:15:49;7.80;91.60
4739;DHT22;2383;48.632;10.156;2023-02-21T10:19:56;7.90;91.50
4739;DHT22;2383;48.632;10.156;2023-02-21T10:24:08;8.00;91.20
4739;DHT22;2383;48.632;10.156;2023-02-21T10:28:22;8.10;91.90
4739;DHT22;2383;48.632;10.156;2023-02-21T10:32:25;8.10;91.50
4739;DHT22;2383;48.632;10.156;2023-02-21T10:36:27;8.10;91.70
4739;DHT22;2383;48.632;10.156;2023-02-21T10:40:59;8.30;91.30
4739;DHT22;2383;48.632;10.156;2023-02-21T10:45:04;8.50;91.10
4739;DHT22;2383;48.632;10.156;2023-02-21T10:49:19;8.60;91.10
4739;DHT22;2383;48.632;10.156;2023-02-21T10:53:38;8.80;91.00
4739;DHT22;2383;48.632;10.156;2023-02-21T10:57:43;8.80;90.90
4739;DHT22;2383;48.632;10.156;2023-02-21T11:01:45;9.10;90.80
4739;DHT22;2383;48.632;10.156;2023-02-21T11:05:50;9.10;90.90
4739;DHT22;2383;48.632;10.156;2023-02-21T11:09:52;9.30;90.50
4739;DHT22;2383;48.632;10.156;2023-02-21T11:14:22;9.10;90.70
4739;DHT22;2383;48.632;10.156;2023-02-21T11:18:25;9.10;90.60
4739;DHT22;2383;48.632;10.156;2023-02-21T11:26:47;9.30;90.60
4739;DHT22;2383;48.632;10.156;2023-02-21T11:35:26;9.70;90.30
4739;DHT22;2383;48.632;10.156;2023-02-21T11:39:32;9.70;90.30
4739;DHT22;2383;48.632;10.156;2023-02-21T11:43:34;9.70;90.10
4739;DHT22;2383;48.632;10.156;2023-02-21T11:47:42;9.90;90.00
4739;DHT22;2383;48.632;10.156;2023-02-21T11:51:48;9.70;90.40
4739;DHT22;2383;48.632;10.156;2023-02-21T12:00:02;9.40;90.10
4739;DHT22;2383;48.632;10.156;2023-02-21T12:08:57;10.30;88.90
4739;DHT22;2383;48.632;10.156;2023-02-21T12:25:35;10.30;88.60
4739;DHT22;2383;48.632;10.156;2023-02-21T12:34:52;10.70;88.10
4739;DHT22;2383;48.632;10.156;2023-02-21T12:39:20;10.70;88.70
4739;DHT22;2383;48.632;10.156;2023-02-21T12:47:59;10.70;89.00
4739;DHT22;2383;48.632;10.156;2023-02-21T12:56:25;10.30;89.40
4739;DHT22;2383;48.632;10.156;2023-02-21T13:00:40;10.50;89.50
4739;DHT22;2383;48.632;10.156;2023-02-21T13:04:54;10.80;88.90
4739;DHT22;2383;48.632;10.156;2023-02-21T13:09:20;11.00;88.70
4739;DHT22;2383;48.632;10.156;2023-02-21T13:13:29;11.00;89.10
4739;DHT22;2383;48.632;10.156;2023-02-21T13:17:34;11.20;88.00
4739;DHT22;2383;48.632;10.156;2023-02-21T13:30:56;11.20;88.10
4739;DHT22;2383;48.632;10.156;2023-02-21T13:35:00;11.30;86.70
4739;DHT22;2383;48.632;10.156;2023-02-21T13:39:15;11.20;86.70
4739;DHT22;2383;48.632;10.156;2023-02-21T13:47:23;11.40;87.90
4739;DHT22;2383;48.632;10.156;2023-02-21T13:51:50;11.50;87.40
4739;DHT22;2383;48.632;10.156;2023-02-21T14:04:55;11.30;87.80
4739;DHT22;2383;48.632;10.156;2023-02-21T14:09:12;11.50;87.80
4739;DHT22;2383;48.632;10.156;2023-02-21T14:17:38;11.70;86.00
4739;DHT22;2383;48.632;10.156;2023-02-21T14:21:49;11.70;85.70
4739;DHT22;2383;48.632;10.156;2023-02-21T14:25:57;11.60;86.70
4739;DHT22;2383;48.632;10.156;2023-02-21T14:34:02;11.10;86.10
4739;DHT22;2383;48.632;10.156;2023-02-21T14:38:14;11.50;86.70
4739;DHT22;2383;48.632;10.156;2023-02-21T15:08:16;11.80;85.90
4739;DHT22;2383;48.632;10.156;2023-02-21T15:12:18;11.80;84.80
4739;DHT22;2383;48.632;10.156;2023-02-21T15:16:20;12.00;85.60
4739;DHT22;2383;48.632;10.156;2023-02-21T15:20:22;12.00;85.80
4739;DHT22;2383;48.632;10.156;2023-02-21T15:24:24;11.70;86.00
4739;DHT22;2383;48.632;10.156;2023-02-21T15:28:31;11.70;85.90
4739;DHT22;2383;48.632;10.156;2023-02-21T15:32:34;11.70;85.70
4739;DHT22;2383;48.632;10.156;2023-02-21T15:36:36;11.80;85.40
4739;DHT22;2383;48.632;10.156;2023-02-21T15:40:38;11.90;85.20
4739;DHT22;2383;48.632;10.156;2023-02-21T15:44:48;12.00;85.40
4739;DHT22;2383;48.632;10.156;2023-02-21T15:48:54;11.80;85.40
4739;DHT22;2383;48.632;10.156;2023-02-21T15:57:22;12.10;85.80
4739;DHT22;2383;48.632;10.156;2023-02-21T16:01:24;11.90;85.50
4739;DHT22;2383;48.632;10.156;2023-02-21T16:05:29;11.90;85.70
4739;DHT22;2383;48.632;10.156;2023-02-21T16:09:33;12.00;85.70
4739;DHT22;2383;48.632;10.156;2023-02-21T16:13:38;12.00;86.20
4739;DHT22;2383;48.632;10.156;2023-02-21T16:17:41;11.90;86.60
4739;DHT22;2383;48.632;10.156;2023-02-21T16:21:44;11.90;86.10
4739;DHT22;2383;48.632;10.156;2023-02-21T16:30:23;11.60;87.00
4739;DHT22;2383;48.632;10.156;2023-02-21T16:34:29;11.40;87.40
4739;DHT22;2383;48.632;10.156;2023-02-21T16:38:31;11.30;87.70
4739;DHT22;2383;48.632;10.156;2023-02-21T16:42:33;11.20;87.50
4739;DHT22;2383;48.632;10.156;2023-02-21T16:46:35;11.10;87.90
4739;DHT22;2383;48.632;10.156;2023-02-21T16:50:38;11.00;88.40
4739;DHT22;2383;48.632;10.156;2023-02-21T16:54:41;10.90;88.40
4739;DHT22;2383;48.632;10.156;2023-02-21T16:58:46;10.80;88.90
4739;DHT22;2383;48.632;10.156;2023-02-21T17:02:50;10.70;88.70
4739;DHT22;2383;48.632;10.156;2023-02-21T17:07:02;10.60;88.90
4739;DHT22;2383;48.632;10.156;2023-02-21T17:11:04;10.40;89.10
4739;DHT22;2383;48.632;10.156;2023-02-21T17:15:07;10.20;89.50
4739;DHT22;2383;48.632;10.156;2023-02-21T17:19:16;10.10;89.90
4739;DHT22;2383;48.632;10.156;2023-02-21T17:23:19;10.00;90.10
4739;DHT22;2383;48.632;10.156;2023-02-21T17:27:21;9.90;90.20
4739;DHT22;2383;48.632;10.156;2023-02-21T17:31:22;9.70;90.50
4739;DHT22;2383;48.632;10.156;2023-02-21T17:35:24;9.50;90.70
4739;DHT22;2383;48.632;10.156;2023-02-21T17:39:26;9.40;90.70
4739;DHT22;2383;48.632;10.156;2023-02-21T17:43:28;9.30;90.50
4739;DHT22;2383;48.632;10.156;2023-02-21T17:47:31;9.20;90.50
4739;DHT22;2383;48.632;10.156;2023-02-21T17:51:33;9.10;90.30
4739;DHT22;2383;48.632;10.156;2023-02-21T17:55:35;9.00;90.40
4739;DHT22;2383;48.632;10.156;2023-02-21T17:59:38;8.50;90.80
4739;DHT22;2383;48.632;10.156;2023-02-21T18:03:39;8.40;91.30
4739;DHT22;2383;48.632;10.156;2023-02-21T18:07:45;8.30;91.60
4739;DHT22;2383;48.632;10.156;2023-02-21T18:11:52;8.30;91.50
4739;DHT22;2383;48.632;10.156;2023-02-21T18:15:55;8.20;91.50
4739;DHT22;2383;48.632;10.156;2023-02-21T18:19:56;8.20;91.40
4739;DHT22;2383;48.632;10.156;2023-02-21T18:23:58;8.20;91.30
4739;DHT22;2383;48.632;10.156;2023-02-21T18:28:00;8.00;91.40
4739;DHT22;2383;48.632;10.156;2023-02-21T18:32:02;7.80;91.70
4739;DHT22;2383;48.632;10.156;2023-02-21T18:36:07;7.80;91.80
4739;DHT22;2383;48.632;10.156;2023-02-21T18:40:11;7.70;91.80
4739;DHT22;2383;48.632;10.156;2023-02-21T18:44:14;7.60;91.70
4739;DHT22;2383;48.632;10.156;2023-02-21T18:48:16;7.30;92.10
4739;DHT22;2383;48.632;10.156;2023-02-21T18:52:18;7.40;92.00
4739;DHT22;2383;48.632;10.156;2023-02-21T18:56:20;7.20;92.00
4739;DHT22;2383;48.632;10.156;2023-02-21T19:00:23;7.00;91.90
4739;DHT22;2383;48.632;10.156;2023-02-21T19:04:25;7.10;92.00
4739;DHT22;2383;48.632;10.156;2023-02-21T19:08:27;7.00;92.00
4739;DHT22;2383;48.632;10.156;2023-02-21T19:12:29;6.90;92.00
4739;DHT22;2383;48.632;10.156;2023-02-21T19:16:31;7.00;92.00
4739;DHT22;2383;48.632;10.156;2023-02-21T19:20:33;6.70;92.00
4739;DHT22;2383;48.632;10.156;2023-02-21T19:24:35;6.60;92.00
4739;DHT22;2383;48.632;10.156;2023-02-21T19:28:37;6.50;92.20
4739;DHT22;2383;48.632;10.156;2023-02-21T19:32:40;6.50;92.30
4739;DHT22;2383;48.632;10.156;2023-02-21T19:36:42;6.70;92.20
4739;DHT22;2383;48.632;10.156;2023-02-21T19:40:44;6.60;92.00
4739;DHT22;2383;48.632;10.156;2023-02-21T19:44:47;6.60;92.00
4739;DHT22;2383;48.632;10.156;2023-02-21T19:48:50;6.50;91.80
4739;DHT22;2383;48.632;10.156;2023-02-21T19:52:53;6.50;91.90
4739;DHT22;2383;48.632;10.156;2023-02-21T19:56:59;6.40;91.70
4739;DHT22;2383;48.632;10.156;2023-02-21T20:01:01;6.40;91.70
4739;DHT22;2383;48.632;10.156;2023-02-21T20:05:03;6.40;91.80
4739;DHT22;2383;48.632;10.156;2023-02-21T20:09:07;6.50;91.60
4739;DHT22;2383;48.632;10.156;2023-02-21T20:13:09;6.50;91.70
4739;DHT22;2383;48.632;10.156;2023-02-21T20:17:11;6.30;91.50
4739;DHT22;2383;48.632;10.156;2023-02-21T20:21:21;6.10;91.60
4739;DHT22;2383;48.632;10.156;2023-02-21T20:25:24;6.20;91.70
4739;DHT22;2383;48.632;10.156;2023-02-21T20:29:26;6.10;91.70
4739;DHT22;2383;48.632;10.156;2023-02-21T20:33:28;6.10;91.70
4739;DHT22;2383;48.632;10.156;2023-02-21T20:37:29;5.90;91.50
4739;DHT22;2383;48.632;10.156;2023-02-21T20:41:35;6.00;91.70
4739;DHT22;2383;48.632;10.156;2023-02-21T20:45:39;5.70;91.60
4739;DHT22;2383;48.632;10.156;2023-02-21T20:49:42;5.60;91.70
4739;DHT22;2383;48.632;10.156;2023-02-21T20:53:45;5.50;91.90
4739;DHT22;2383;48.632;10.156;2023-02-21T20:57:47;5.50;91.80
4739;DHT22;2383;48.632;10.156;2023-02-21T21:01:50;5.50;91.80
4739;DHT22;2383;48.632;10.156;2023-02-21T21:05:52;5.40;91.70
4739;DHT22;2383;48.632;10.156;2023-02-21T21:09:53;5.30;91.70
4739;DHT22;2383;48.632;10.156;2023-02-21T21:13:55;5.40;91.80
4739;DHT22;2383;48.632;10.156;2023-02-21T21:17:57;5.20;91.80
4739;DHT22;2383;48.632;10.156;2023-02-21T21:22:01;5.20;91.70
4739;DHT22;2383;48.632;10.156;2023-02-21T21:26:07;5.10;91.70
4739;DHT22;2383;48.632;10.156;2023-02-21T21:30:11;5.10;91.80
4739;DHT22;2383;48.632;10.156;2023-02-21T21:34:13;5.00;91.80
4739;DHT22;2383;48.632;10.156;2023-02-21T21:38:15;5.00;91.80
4739;DHT22;2383;48.632;10.156;2023-02-21T21:42:26;5.00;91.70
4739;DHT22;2383;48.632;10.156;2023-02-21T21:46:28;5.00;91.70
4739;DHT22;2383;48.632;10.156;2023-02-21T21:50:33;4.90;91.90
4739;DHT22;2383;48.632;10.156;2023-02-21T21:54:35;5.00;91.90
4739;DHT22;2383;48.632;10.156;2023-02-21T21:58:38;4.90;92.00
4739;DHT22;2383;48.632;10.156;2023-02-21T22:02:40;5.00;92.20
4739;DHT22;2383;48.632;10.156;2023-02-21T22:06:42;4.90;92.10
4739;DHT22;2383;48.632;10.156;2023-02-21T22:10:48;4.90;92.00
4739;DHT22;2383;48.632;10.156;2023-02-21T22:14:49;4.90;92.00
4739;DHT22;2383;48.632;10.156;2023-02-21T22:18:52;5.00;91.90
4739;DHT22;2383;48.632;10.156;2023-02-21T22:22:54;4.90;92.00
4739;DHT22;2383;48.632;10.156;2023-02-21T22:27:00;4.80;92.10
4739;DHT22;2383;48.632;10.156;2023-02-21T22:31:03;4.70;91.90
4739;DHT22;2383;48.632;10.156;2023-02-21T22:35:12;4.60;92.40
4739;DHT22;2383;48.632;10.156;2023-02-21T22:39:20;4.60;92.30
4739;DHT22;2383;48.632;10.156;2023-02-21T22:43:21;4.70;92.30
4739;DHT22;2383;48.632;10.156;2023-02-21T22:47:23;4.70;92.40
4739;DHT22;2383;48.632;10.156;2023-02-21T22:51:27;4.90;92.60
4739;DHT22;2383;48.632;10.156;2023-02-21T22:55:29;4.80;92.50
4739;DHT22;2383;48.632;10.156;2023-02-21T22:59:31;4.60;92.50
4739;DHT22;2383;48.632;10.156;2023-02-21T23:03:36;3.20;94.30
4739;DHT22;2383;48.632;10.156;2023-02-21T23:07:41;3.00;95.10
4739;DHT22;2383;48.632;10.156;2023-02-21T23:11:48;2.90;95.40
4739;DHT22;2383;48.632;10.156;2023-02-21T23:15:52;2.60;95.60
4739;DHT22;2383;48.632;10.156;2023-02-21T23:19:56;2.80;95.70
4739;DHT22;2383;48.632;10.156;2023-02-21T23:23:58;2.30;96.00
4739;DHT22;2383;48.632;10.156;2023-02-21T23:28:08;2.70;96.00
4739;DHT22;2383;48.632;10.156;2023-02-21T23:32:12;2.70;95.80
4739;DHT22;2383;48.632;10.156;2023-02-21T23:36:17;3.50;95.00
4739;DHT22;2383;48.632;10.156;2023-02-21T23:40:28;3.80;94.50
4739;DHT22;2383;48.632;10.156;2023-02-21T23:44:33;3.60;94.70
4739;DHT22;2383;48.632;10.156;2023-02-21T23:48:36;3.30;94.70
4739;DHT22;2383;48.632;10.156;2023-02-21T23:52:38;3.60;94.70
4739;DHT22;2383;48.632;10.156;2023-02-21T23:56:40;3.90;94.40
